Time;durP1;ratioP1;P1;durP2;ratioP2;P2;SDS_P1;SDS_P2;PMS_P1;PMS_P2;Temp;Humidity;BMP_temperature;BMP_pressure;BME280_temperature;BME280_humidity;BME280_pressure;Samples;Min_cycle;Max_cycle;Signal;HPM_P1;HPM_P2
2022/07/24 00:01:17;;;;;;;9.00;6.47;;;;;;;;;;4379580;32;20077;-64
2022/07/24 00:03:44;;;;;;;9.38;7.32;;;;;;;;;;4393822;32;20066;-65
2022/07/24 00:06:11;;;;;;;10.77;6.87;;;;;;;;;;4392059;32;20175;-64
2022/07/24 00:08:38;;;;;;;9.95;7.22;;;;;;;;;;4379776;32;20066;-63
2022/07/24 00:11:05;;;;;;;9.13;6.55;;;;;;;;;;4393415;32;20153;-64
2022/07/24 00:13:31;;;;;;;10.23;7.18;;;;;;;;;;4392559;32;20100;-64
2022/07/24 00:15:58;;;;;;;9.73;6.65;;;;;;;;;;4366840;32;20162;-63
2022/07/24 00:18:25;;;;;;;11.38;6.95;;;;;;;;;;4392156;32;20149;-64
2022/07/24 00:20:52;;;;;;;10.18;6.80;;;;;;;;;;4391992;32;20652;-65
2022/07/24 00:23:18;;;;;;;10.43;6.68;;;;;;;;;;4391586;32;20073;-64
2022/07/24 00:25:45;;;;;;;10.52;6.10;;;;;;;;;;4393429;32;20078;-64
2022/07/24 00:28:12;;;;;;;9.52;6.05;;;;;;;;;;4379452;32;20084;-64
2022/07/24 00:30:39;;;;;;;9.27;6.65;;;;;;;;;;4379705;32;20141;-64
2022/07/24 00:33:05;;;;;;;7.97;6.00;;;;;;;;;;4392610;32;20161;-64
2022/07/24 00:35:32;;;;;;;8.95;6.65;;;;;;;;;;4379800;32;20077;-64
2022/07/24 00:37:59;;;;;;;7.65;6.65;;;;;;;;;;4379236;32;20085;-65
2022/07/24 00:40:26;;;;;;;9.23;6.40;;;;;;;;;;4391645;32;20080;-64
2022/07/24 00:42:54;;;;;;;7.60;6.25;;;;;;;;;;4379100;32;20065;-65
2022/07/24 00:45:20;;;;;;;9.73;6.78;;;;;;;;;;4378800;32;20179;-64
2022/07/24 00:47:47;;;;;;;9.80;7.03;;;;;;;;;;4379223;32;20146;-65
2022/07/24 00:50:14;;;;;;;8.77;6.82;;;;;;;;;;4392994;32;20154;-65
2022/07/24 00:52:41;;;;;;;9.13;6.72;;;;;;;;;;4391307;32;20537;-65
2022/07/24 00:55:08;;;;;;;8.70;6.60;;;;;;;;;;4390940;32;20153;-65
2022/07/24 00:57:35;;;;;;;9.88;7.28;;;;;;;;;;4378854;32;20147;-65
2022/07/24 01:00:06;;;;;;;14.77;6.95;;;;;;;;;;4379011;32;20070;-65
2022/07/24 01:02:33;;;;;;;10.13;6.97;;;;;;;;;;4391184;32;20161;-65
2022/07/24 01:05:00;;;;;;;9.48;7.30;;;;;;;;;;4378472;32;20078;-64
2022/07/24 01:07:27;;;;;;;11.60;7.15;;;;;;;;;;4378904;32;20074;-64
2022/07/24 01:09:54;;;;;;;10.25;7.55;;;;;;;;;;4391742;32;20165;-64
2022/07/24 01:12:21;;;;;;;9.52;7.07;;;;;;;;;;4378622;32;20074;-64
2022/07/24 01:14:48;;;;;;;10.82;6.47;;;;;;;;;;4378808;32;20163;-64
2022/07/24 01:17:15;;;;;;;10.25;7.12;;;;;;;;;;4391039;32;20550;-64
2022/07/24 01:19:41;;;;;;;9.15;7.03;;;;;;;;;;4392370;32;20074;-64
2022/07/24 01:22:08;;;;;;;12.80;7.20;;;;;;;;;;4378393;32;20163;-64
2022/07/24 01:24:35;;;;;;;11.80;7.50;;;;;;;;;;4378395;32;20086;-64
2022/07/24 01:27:02;;;;;;;11.38;7.28;;;;;;;;;;4365815;32;20519;-64
2022/07/24 01:29:29;;;;;;;9.50;6.97;;;;;;;;;;4390885;32;20596;-64
2022/07/24 01:31:56;;;;;;;9.00;6.87;;;;;;;;;;4391922;32;20089;-65
2022/07/24 01:34:22;;;;;;;11.25;7.03;;;;;;;;;;4378374;32;20156;-64
2022/07/24 01:36:49;;;;;;;8.93;6.97;;;;;;;;;;4365310;32;20570;-64
2022/07/24 01:39:16;;;;;;;10.93;7.70;;;;;;;;;;4390716;32;20149;-65
2022/07/24 01:41:43;;;;;;;11.23;7.60;;;;;;;;;;4392118;32;20081;-64
2022/07/24 01:44:09;;;;;;;12.57;8.70;;;;;;;;;;4391871;32;20083;-64
2022/07/24 01:46:36;;;;;;;12.73;8.07;;;;;;;;;;4390595;32;20089;-64
2022/07/24 01:49:03;;;;;;;8.90;7.50;;;;;;;;;;4390734;32;20518;-64
2022/07/24 01:51:30;;;;;;;10.35;7.55;;;;;;;;;;4378310;32;20093;-64
2022/07/24 01:53:57;;;;;;;11.02;7.22;;;;;;;;;;4390563;32;20539;-64
2022/07/24 01:56:24;;;;;;;11.07;6.97;;;;;;;;;;4390394;32;20248;-64
2022/07/24 01:58:51;;;;;;;11.55;7.28;;;;;;;;;;4365446;32;20074;-64
2022/07/24 02:01:18;;;;;;;11.48;7.47;;;;;;;;;;4365562;32;20097;-64
2022/07/24 02:03:45;;;;;;;10.90;7.53;;;;;;;;;;4390266;32;20065;-63
2022/07/24 02:06:11;;;;;;;10.07;7.47;;;;;;;;;;4392117;32;20174;-64
2022/07/24 02:08:38;;;;;;;8.80;7.05;;;;;;;;;;4390526;32;20097;-64
2022/07/24 02:11:05;;;;;;;8.93;7.20;;;;;;;;;;4391669;32;20440;-64
2022/07/24 02:13:32;;;;;;;11.30;7.18;;;;;;;;;;4390268;32;20085;-64
2022/07/24 02:15:58;;;;;;;12.18;7.60;;;;;;;;;;4389631;32;20464;-64
2022/07/24 02:18:25;;;;;;;10.05;7.20;;;;;;;;;;4390216;32;20095;-64
2022/07/24 02:20:52;;;;;;;9.75;7.37;;;;;;;;;;4390737;32;20081;-64
2022/07/24 02:23:18;;;;;;;12.45;7.37;;;;;;;;;;4391769;32;20081;-64
2022/07/24 02:25:46;;;;;;;11.68;7.65;;;;;;;;;;4378047;32;20082;-64
2022/07/24 02:28:13;;;;;;;12.27;7.60;;;;;;;;;;4390300;32;20081;-64
2022/07/24 02:30:40;;;;;;;10.75;7.45;;;;;;;;;;4365026;32;20089;-64
2022/07/24 02:33:08;;;;;;;14.18;7.78;;;;;;;;;;4377136;32;20177;-63
2022/07/24 02:35:34;;;;;;;11.02;7.85;;;;;;;;;;4390243;32;20572;-65
2022/07/24 02:38:02;;;;;;;11.52;8.23;;;;;;;;;;4391504;32;20066;-64
2022/07/24 02:40:29;;;;;;;10.63;8.15;;;;;;;;;;4365143;32;20070;-65
2022/07/24 02:42:56;;;;;;;10.73;7.70;;;;;;;;;;4377553;32;20175;-64
2022/07/24 02:45:23;;;;;;;11.00;7.62;;;;;;;;;;4391184;32;20088;-66
2022/07/24 02:47:54;;;;;;;10.60;7.95;;;;;;;;;;4390147;32;20145;-64
2022/07/24 02:50:23;;;;;;;12.27;8.10;;;;;;;;;;4389954;32;20440;-64
2022/07/24 02:52:50;;;;;;;11.00;7.93;;;;;;;;;;4377105;32;20093;-64
2022/07/24 02:55:17;;;;;;;10.77;8.07;;;;;;;;;;4389755;32;20085;-64
2022/07/24 02:57:44;;;;;;;12.20;8.00;;;;;;;;;;4364957;32;20154;-64
2022/07/24 03:00:13;;;;;;;10.63;8.20;;;;;;;;;;4365198;32;20146;-64
2022/07/24 03:02:40;;;;;;;12.10;7.75;;;;;;;;;;4377465;32;20082;-64
2022/07/24 03:05:07;;;;;;;9.98;7.85;;;;;;;;;;4390134;32;20082;-64
2022/07/24 03:07:36;;;;;;;12.20;7.60;;;;;;;;;;4364908;32;20066;-64
2022/07/24 03:10:05;;;;;;;12.40;8.48;;;;;;;;;;4389812;32;20431;-64
2022/07/24 03:12:32;;;;;;;11.52;8.20;;;;;;;;;;4389594;32;20070;-64
2022/07/24 03:14:59;;;;;;;16.70;8.98;;;;;;;;;;4364772;32;20074;-64
2022/07/24 03:17:26;;;;;;;13.10;8.63;;;;;;;;;;4377047;32;20073;-64
2022/07/24 03:19:52;;;;;;;11.07;8.30;;;;;;;;;;4390282;32;20163;-64
2022/07/24 03:22:19;;;;;;;13.23;8.48;;;;;;;;;;4392186;32;20058;-64
2022/07/24 03:24:46;;;;;;;12.95;8.80;;;;;;;;;;4393618;32;20081;-64
2022/07/24 03:27:13;;;;;;;11.02;7.50;;;;;;;;;;4395306;32;20137;-64
2022/07/24 03:29:39;;;;;;;11.35;7.78;;;;;;;;;;4395810;32;20082;-65
2022/07/24 03:32:06;;;;;;;11.95;8.23;;;;;;;;;;4383587;32;20082;-64
2022/07/24 03:34:33;;;;;;;15.95;7.75;;;;;;;;;;4383091;32;20093;-63
2022/07/24 03:37:00;;;;;;;9.85;7.65;;;;;;;;;;4395277;32;20553;-64
2022/07/24 03:39:27;;;;;;;10.30;7.35;;;;;;;;;;4382763;32;20186;-64
2022/07/24 03:41:53;;;;;;;15.02;8.57;;;;;;;;;;4395164;32;20082;-64
2022/07/24 03:44:20;;;;;;;10.55;7.70;;;;;;;;;;4383690;32;20074;-64
2022/07/24 03:46:47;;;;;;;11.00;7.57;;;;;;;;;;4395058;32;20090;-62
2022/07/24 03:49:14;;;;;;;11.57;8.05;;;;;;;;;;4381993;32;20520;-64
2022/07/24 03:51:41;;;;;;;10.05;7.72;;;;;;;;;;4397604;32;20072;-64
2022/07/24 03:54:08;;;;;;;12.93;8.55;;;;;;;;;;4394996;32;20077;-65
2022/07/24 03:56:35;;;;;;;12.75;8.52;;;;;;;;;;4380684;32;20116;-64
2022/07/24 03:59:01;;;;;;;11.32;7.95;;;;;;;;;;4380302;32;20077;-65
2022/07/24 04:01:28;;;;;;;12.02;7.75;;;;;;;;;;4392308;32;20105;-63
2022/07/24 04:03:55;;;;;;;12.57;7.72;;;;;;;;;;4392377;32;20172;-64
2022/07/24 04:06:22;;;;;;;11.95;7.85;;;;;;;;;;4395341;32;20073;-64
2022/07/24 04:08:48;;;;;;;12.40;7.80;;;;;;;;;;4367914;32;20097;-63
2022/07/24 04:11:15;;;;;;;11.75;8.57;;;;;;;;;;4392242;32;20074;-64
2022/07/24 04:13:42;;;;;;;11.45;8.30;;;;;;;;;;4392580;32;20145;-65
2022/07/24 04:16:08;;;;;;;12.27;8.93;;;;;;;;;;4392597;32;20066;-64
2022/07/24 04:18:35;;;;;;;11.30;9.10;;;;;;;;;;4392212;32;20181;-64
2022/07/24 04:21:02;;;;;;;13.35;7.97;;;;;;;;;;4391919;32;20599;-63
2022/07/24 04:23:29;;;;;;;15.60;9.23;;;;;;;;;;4391879;32;20070;-65
2022/07/24 04:25:55;;;;;;;10.80;7.55;;;;;;;;;;4379557;32;20070;-64
2022/07/24 04:28:22;;;;;;;10.35;8.07;;;;;;;;;;4379776;32;20070;-64
2022/07/24 04:30:49;;;;;;;15.05;9.10;;;;;;;;;;4378983;32;20596;-64
2022/07/24 04:33:16;;;;;;;13.60;9.32;;;;;;;;;;4378778;32;20089;-63
2022/07/24 04:35:43;;;;;;;12.15;9.35;;;;;;;;;;4379256;32;20090;-64
2022/07/24 04:38:09;;;;;;;13.88;9.15;;;;;;;;;;4378784;32;20070;-64
2022/07/24 04:40:36;;;;;;;13.10;8.55;;;;;;;;;;4391338;32;20499;-64
2022/07/24 04:43:06;;;;;;;12.30;8.88;;;;;;;;;;4391905;32;20164;-64
2022/07/24 04:45:33;;;;;;;13.30;9.15;;;;;;;;;;4379597;32;20089;-64
2022/07/24 04:47:59;;;;;;;11.50;8.80;;;;;;;;;;4391637;32;20148;-64
2022/07/24 04:50:26;;;;;;;17.17;9.95;;;;;;;;;;4378927;32;20081;-65
2022/07/24 04:52:53;;;;;;;14.68;9.73;;;;;;;;;;4378874;32;20097;-63
2022/07/24 04:55:20;;;;;;;12.23;9.15;;;;;;;;;;4392594;32;20177;-65
2022/07/24 04:57:47;;;;;;;15.85;9.32;;;;;;;;;;4391941;32;20188;-64
2022/07/24 05:00:15;;;;;;;14.60;10.48;;;;;;;;;;4378717;32;20105;-63
2022/07/24 05:02:41;;;;;;;11.30;9.00;;;;;;;;;;4378747;32;20173;-63
2022/07/24 05:05:08;;;;;;;12.35;9.32;;;;;;;;;;4391225;32;20523;-64
2022/07/24 05:07:36;;;;;;;12.27;8.85;;;;;;;;;;4378919;32;20084;-64
2022/07/24 05:10:03;;;;;;;14.70;8.48;;;;;;;;;;4392844;32;20062;-64
2022/07/24 05:12:30;;;;;;;10.70;7.80;;;;;;;;;;4365802;32;20093;-64
2022/07/24 05:14:56;;;;;;;12.25;9.43;;;;;;;;;;4366031;32;20074;-63
2022/07/24 05:17:23;;;;;;;11.20;8.63;;;;;;;;;;4378335;32;20459;-65
2022/07/24 05:19:50;;;;;;;11.52;9.05;;;;;;;;;;4365738;32;20157;-64
2022/07/24 05:22:17;;;;;;;13.07;9.02;;;;;;;;;;4391054;32;20064;-64
2022/07/24 05:24:44;;;;;;;12.05;9.23;;;;;;;;;;4390859;32;20550;-64
2022/07/24 05:27:10;;;;;;;13.18;8.90;;;;;;;;;;4391006;32;20600;-64
2022/07/24 05:29:37;;;;;;;10.98;8.13;;;;;;;;;;4391325;32;20089;-64
2022/07/24 05:32:04;;;;;;;11.52;8.52;;;;;;;;;;4377915;32;20567;-65
2022/07/24 05:34:31;;;;;;;11.35;8.73;;;;;;;;;;4391313;32;20172;-64
2022/07/24 05:36:58;;;;;;;9.88;8.68;;;;;;;;;;4390716;32;20069;-64
2022/07/24 05:39:25;;;;;;;10.68;8.35;;;;;;;;;;4378528;32;20456;-64
2022/07/24 05:41:52;;;;;;;12.07;8.02;;;;;;;;;;4378241;32;20069;-64
2022/07/24 05:44:19;;;;;;;14.60;8.27;;;;;;;;;;4391092;32;20153;-64
2022/07/24 05:46:45;;;;;;;13.43;9.32;;;;;;;;;;4390709;32;20108;-64
2022/07/24 05:49:12;;;;;;;11.18;7.60;;;;;;;;;;4378292;32;20145;-65
2022/07/24 05:51:39;;;;;;;13.75;7.47;;;;;;;;;;4377753;32;20070;-64
2022/07/24 05:54:06;;;;;;;12.98;8.02;;;;;;;;;;4390727;32;20101;-64
2022/07/24 05:56:33;;;;;;;10.57;7.57;;;;;;;;;;4377635;32;20466;-64
2022/07/24 05:58:59;;;;;;;12.77;8.25;;;;;;;;;;4378142;32;20173;-64
2022/07/24 06:01:26;;;;;;;12.98;8.35;;;;;;;;;;4391031;32;20075;-65
2022/07/24 06:03:53;;;;;;;10.57;8.20;;;;;;;;;;4392193;32;20093;-64
2022/07/24 06:06:20;;;;;;;10.82;7.40;;;;;;;;;;4390673;32;20093;-63
2022/07/24 06:08:47;;;;;;;11.25;7.95;;;;;;;;;;4365267;32;20597;-64
2022/07/24 06:11:13;;;;;;;9.98;7.80;;;;;;;;;;4377820;32;20096;-64
2022/07/24 06:13:40;;;;;;;9.60;7.28;;;;;;;;;;4390673;32;20160;-64
2022/07/24 06:16:07;;;;;;;9.90;6.85;;;;;;;;;;4390315;32;20166;-64
2022/07/24 06:18:34;;;;;;;9.13;7.57;;;;;;;;;;4377983;32;20093;-64
2022/07/24 06:21:00;;;;;;;9.82;7.12;;;;;;;;;;4390669;32;20147;-65
2022/07/24 06:23:27;;;;;;;9.98;6.72;;;;;;;;;;4390172;32;20086;-64
2022/07/24 06:25:54;;;;;;;8.43;6.55;;;;;;;;;;4383328;32;20147;-64
2022/07/24 06:28:21;;;;;;;9.70;6.35;;;;;;;;;;4398928;32;20587;-65
2022/07/24 06:30:47;;;;;;;9.43;6.55;;;;;;;;;;4391206;32;20096;-64
2022/07/24 06:33:14;;;;;;;11.40;7.25;;;;;;;;;;4377402;32;20162;-63
2022/07/24 06:35:41;;;;;;;10.32;7.50;;;;;;;;;;4390116;32;20092;-64
2022/07/24 06:38:09;;;;;;;8.32;6.00;;;;;;;;;;4390420;32;20084;-63
2022/07/24 06:40:36;;;;;;;8.05;6.00;;;;;;;;;;4390109;32;20151;-64
2022/07/24 06:43:03;;;;;;;9.32;5.95;;;;;;;;;;4364998;32;20104;-65
2022/07/24 06:45:33;;;;;;;9.02;6.65;;;;;;;;;;4391391;32;20165;-64
2022/07/24 06:48:01;;;;;;;9.65;6.43;;;;;;;;;;4377823;32;20097;-64
2022/07/24 06:50:28;;;;;;;8.60;5.80;;;;;;;;;;4390410;32;20088;-64
2022/07/24 06:52:55;;;;;;;10.15;6.15;;;;;;;;;;4365149;32;20066;-64
2022/07/24 06:55:21;;;;;;;8.50;6.53;;;;;;;;;;4389762;32;20165;-64
2022/07/24 06:57:48;;;;;;;10.30;5.53;;;;;;;;;;4389579;32;20094;-64
2022/07/24 07:00:15;;;;;;;8.50;6.03;;;;;;;;;;4389666;32;20169;-63
2022/07/24 07:02:42;;;;;;;7.22;5.68;;;;;;;;;;4379176;32;20073;-64
2022/07/24 07:05:10;;;;;;;7.22;5.75;;;;;;;;;;4380311;32;20066;-65
2022/07/24 07:07:37;;;;;;;7.45;5.10;;;;;;;;;;4368256;32;20074;-63
2022/07/24 07:10:05;;;;;;;6.93;5.10;;;;;;;;;;4380735;32;20097;-63
2022/07/24 07:12:32;;;;;;;7.40;5.87;;;;;;;;;;4380070;32;20109;-65
2022/07/24 07:14:59;;;;;;;8.07;5.95;;;;;;;;;;4380365;32;20504;-64
2022/07/24 07:17:26;;;;;;;7.70;5.05;;;;;;;;;;4392841;32;20074;-64
2022/07/24 07:19:52;;;;;;;9.35;5.90;;;;;;;;;;4380029;32;20527;-64
2022/07/24 07:22:19;;;;;;;9.70;6.40;;;;;;;;;;4380234;32;20248;-64
2022/07/24 07:24:46;;;;;;;9.32;5.72;;;;;;;;;;4392886;32;20507;-64
2022/07/24 07:27:13;;;;;;;9.77;5.97;;;;;;;;;;4368513;32;20081;-64
2022/07/24 07:29:40;;;;;;;7.90;5.72;;;;;;;;;;4392453;32;20517;-64
2022/07/24 07:32:06;;;;;;;8.23;6.53;;;;;;;;;;4392486;32;20170;-64
2022/07/24 07:34:33;;;;;;;7.68;6.18;;;;;;;;;;4380245;32;20091;-64
2022/07/24 07:37:00;;;;;;;7.93;5.12;;;;;;;;;;4392294;32;20085;-63
2022/07/24 07:39:27;;;;;;;6.40;5.62;;;;;;;;;;4393722;32;20093;-64
2022/07/24 07:41:54;;;;;;;7.30;4.97;;;;;;;;;;4380143;32;20074;-64
2022/07/24 07:44:21;;;;;;;6.65;4.95;;;;;;;;;;4392460;32;20492;-65
2022/07/24 07:46:48;;;;;;;7.05;4.85;;;;;;;;;;4392248;32;20139;-64
2022/07/24 07:49:15;;;;;;;5.10;4.50;;;;;;;;;;4379521;32;20464;-64
2022/07/24 07:51:42;;;;;;;7.60;5.20;;;;;;;;;;4393710;32;20076;-64
2022/07/24 07:54:08;;;;;;;7.85;5.32;;;;;;;;;;4392570;32;20514;-64
2022/07/24 07:56:35;;;;;;;6.07;4.37;;;;;;;;;;4380362;32;20077;-64
2022/07/24 07:59:02;;;;;;;8.00;5.90;;;;;;;;;;4379603;32;20145;-64
2022/07/24 08:01:29;;;;;;;6.45;5.12;;;;;;;;;;4379887;32;20085;-65
2022/07/24 08:03:55;;;;;;;8.07;5.78;;;;;;;;;;4379538;32;20133;-64
2022/07/24 08:06:22;;;;;;;7.97;5.35;;;;;;;;;;4393262;32;20174;-63
2022/07/24 08:08:49;;;;;;;6.15;5.15;;;;;;;;;;4392146;32;20074;-65
2022/07/24 08:11:16;;;;;;;5.80;4.85;;;;;;;;;;4379634;32;20077;-64
2022/07/24 08:13:43;;;;;;;6.95;5.12;;;;;;;;;;4392905;32;20569;-64
2022/07/24 08:16:10;;;;;;;9.57;5.20;;;;;;;;;;4379332;32;20072;-64
2022/07/24 08:18:37;;;;;;;6.32;5.12;;;;;;;;;;4379281;32;20145;-64
2022/07/24 08:21:04;;;;;;;10.60;4.35;;;;;;;;;;4379037;32;20066;-63
2022/07/24 08:23:31;;;;;;;7.72;5.43;;;;;;;;;;4392115;32;20153;-64
2022/07/24 08:25:57;;;;;;;6.47;4.43;;;;;;;;;;4391774;32;20146;-64
2022/07/24 08:28:24;;;;;;;7.18;4.68;;;;;;;;;;4391623;32;20495;-64
2022/07/24 08:30:52;;;;;;;10.30;4.57;;;;;;;;;;4392157;32;20062;-64
2022/07/24 08:33:19;;;;;;;6.30;4.60;;;;;;;;;;4379873;32;20089;-65
2022/07/24 08:35:45;;;;;;;6.37;4.75;;;;;;;;;;4382343;32;20501;-64
2022/07/24 08:38:12;;;;;;;6.10;4.30;;;;;;;;;;4380925;32;20085;-64
2022/07/24 08:40:40;;;;;;;8.15;5.18;;;;;;;;;;4395165;32;20170;-64
2022/07/24 08:43:08;;;;;;;8.90;5.70;;;;;;;;;;4380870;32;20062;-64
2022/07/24 08:45:38;;;;;;;7.15;5.28;;;;;;;;;;4380243;32;20074;-64
2022/07/24 08:48:06;;;;;;;8.68;5.70;;;;;;;;;;4392924;32;20093;-64
2022/07/24 08:50:35;;;;;;;9.48;6.00;;;;;;;;;;4380393;32;20173;-64
2022/07/24 08:53:03;;;;;;;7.95;5.40;;;;;;;;;;4380792;32;20073;-64
2022/07/24 08:55:30;;;;;;;7.35;5.28;;;;;;;;;;4392260;32;20491;-65
2022/07/24 08:57:59;;;;;;;9.68;5.25;;;;;;;;;;4378834;32;20172;-64
2022/07/24 09:00:26;;;;;;;10.68;8.10;;;;;;;;;;4391405;32;20562;-63
2022/07/24 09:02:54;;;;;;;7.53;5.25;;;;;;;;;;4378784;32;20069;-65
2022/07/24 09:05:20;;;;;;;6.78;4.97;;;;;;;;;;4378838;32;20158;-64
2022/07/24 09:07:47;;;;;;;6.78;5.45;;;;;;;;;;4378472;32;20074;-64
2022/07/24 09:10:16;;;;;;;8.63;6.60;;;;;;;;;;4378543;32;20078;-64
2022/07/24 09:12:45;;;;;;;7.00;4.62;;;;;;;;;;4391015;32;20483;-63
2022/07/24 09:15:23;;;;;;;5.28;4.28;;;;;;;;;;4378503;32;20085;-64
2022/07/24 09:18:00;;;;;;;8.48;7.07;;;;;;;;;;4378592;32;20089;-64
2022/07/24 09:20:28;;;;;;;8.15;5.62;;;;;;;;;;4378378;32;20512;-64
2022/07/24 09:22:57;;;;;;;8.82;6.45;;;;;;;;;;4378299;32;20522;-64
2022/07/24 09:25:28;;;;;;;6.65;4.37;;;;;;;;;;4378185;32;20082;-64
2022/07/24 09:28:03;;;;;;;7.93;4.93;;;;;;;;;;4378548;32;20086;-62
2022/07/24 09:30:31;;;;;;;9.25;6.25;;;;;;;;;;4378411;32;20078;-63
2022/07/24 09:33:11;;;;;;;10.07;6.07;;;;;;;;;;4378036;32;20082;-64
2022/07/24 09:35:43;;;;;;;6.00;5.22;;;;;;;;;;4392050;32;20148;-64
2022/07/24 09:38:12;;;;;;;7.43;5.57;;;;;;;;;;4378104;32;20102;-64
2022/07/24 09:40:44;;;;;;;10.18;5.70;;;;;;;;;;4365865;32;20081;-64
2022/07/24 09:43:26;;;;;;;8.30;5.68;;;;;;;;;;4365691;32;20069;-63
2022/07/24 09:46:01;;;;;;;8.48;5.70;;;;;;;;;;4390469;32;20081;-64
2022/07/24 09:48:33;;;;;;;6.40;4.80;;;;;;;;;;4365437;32;20538;-64
2022/07/24 09:51:14;;;;;;;6.55;4.40;;;;;;;;;;4378751;32;20088;-64
2022/07/24 09:53:42;;;;;;;7.12;5.47;;;;;;;;;;4378079;32;20086;-64
2022/07/24 09:56:10;;;;;;;8.65;5.47;;;;;;;;;;4365404;32;20081;-64
2022/07/24 09:59:07;;;;;;;7.68;4.72;;;;;;;;;;4365271;32;20170;-64
2022/07/24 10:01:34;;;;;;;9.25;4.72;;;;;;;;;;4390420;32;20065;-65
2022/07/24 10:04:02;;;;;;;6.00;4.82;;;;;;;;;;4365405;32;20089;-64
2022/07/24 10:06:30;;;;;;;8.32;5.40;;;;;;;;;;4390648;32;20149;-64
2022/07/24 10:08:57;;;;;;;6.10;4.50;;;;;;;;;;4365514;32;20074;-64
2022/07/24 10:11:24;;;;;;;7.25;6.12;;;;;;;;;;4377555;32;20073;-64
2022/07/24 10:13:51;;;;;;;8.13;5.15;;;;;;;;;;4390137;32;20074;-64
2022/07/24 10:16:28;;;;;;;4.97;4.10;;;;;;;;;;4390051;32;20173;-63
2022/07/24 10:18:57;;;;;;;7.18;5.55;;;;;;;;;;4377789;32;20079;-64
2022/07/24 10:21:25;;;;;;;7.35;6.05;;;;;;;;;;4365794;32;20108;-64
2022/07/24 10:24:06;;;;;;;5.68;4.28;;;;;;;;;;4365117;32;20170;-65
2022/07/24 10:26:38;;;;;;;7.40;5.78;;;;;;;;;;4378018;32;20073;-64
2022/07/24 10:29:14;;;;;;;7.03;5.53;;;;;;;;;;4377877;32;20081;-64
2022/07/24 10:31:45;;;;;;;5.37;4.55;;;;;;;;;;4377789;32;20150;-64
2022/07/24 10:34:32;;;;;;;9.65;6.05;;;;;;;;;;4390531;32;20499;-65
2022/07/24 10:37:20;;;;;;;7.57;5.50;;;;;;;;;;4377179;32;20066;-64
2022/07/24 10:40:11;;;;;;;8.45;5.53;;;;;;;;;;4390029;32;20516;-64
2022/07/24 10:43:09;;;;;;;8.45;5.60;;;;;;;;;;4391604;32;20088;-65
2022/07/24 10:45:47;;;;;;;6.95;5.22;;;;;;;;;;4389910;32;20065;-64
2022/07/24 10:48:23;;;;;;;6.75;5.75;;;;;;;;;;4365022;32;20085;-64
2022/07/24 10:51:07;;;;;;;7.30;5.43;;;;;;;;;;4389731;32;20138;-64
2022/07/24 10:53:42;;;;;;;8.50;5.70;;;;;;;;;;4377308;32;20081;-64
2022/07/24 10:56:28;;;;;;;6.45;5.10;;;;;;;;;;4377069;32;20514;-64
2022/07/24 10:59:07;;;;;;;7.22;5.32;;;;;;;;;;4377833;32;20500;-64
2022/07/24 11:01:47;;;;;;;8.35;5.50;;;;;;;;;;4364922;32;20546;-65
2022/07/24 11:04:20;;;;;;;7.75;6.12;;;;;;;;;;4365176;32;20143;-64
2022/07/24 11:06:49;;;;;;;11.63;6.50;;;;;;;;;;4389889;32;20065;-64
2022/07/24 11:09:18;;;;;;;7.03;5.47;;;;;;;;;;4377813;32;20161;-64
2022/07/24 11:11:53;;;;;;;7.22;5.93;;;;;;;;;;4376788;32;20618;-64
2022/07/24 11:14:46;;;;;;;7.05;5.55;;;;;;;;;;4391491;32;20171;-64
2022/07/24 11:17:40;;;;;;;8.57;5.90;;;;;;;;;;4364664;32;20097;-64
2022/07/24 11:20:18;;;;;;;8.90;6.55;;;;;;;;;;4391176;32;20154;-65
2022/07/24 11:22:50;;;;;;;7.82;5.55;;;;;;;;;;4390093;32;20511;-64
2022/07/24 11:25:26;;;;;;;10.82;6.12;;;;;;;;;;4377171;32;20066;-63
2022/07/24 11:28:05;;;;;;;7.62;5.32;;;;;;;;;;4364623;32;20451;-65
2022/07/24 11:30:32;;;;;;;7.20;6.25;;;;;;;;;;4389615;32;20066;-65
2022/07/24 11:33:00;;;;;;;11.20;6.07;;;;;;;;;;4391044;32;20089;-64
2022/07/24 11:35:35;;;;;;;6.68;4.97;;;;;;;;;;4364527;32;20174;-64
2022/07/24 11:38:03;;;;;;;8.15;5.97;;;;;;;;;;4389779;32;20096;-64
2022/07/24 11:40:30;;;;;;;9.57;6.60;;;;;;;;;;4364445;32;20082;-64
2022/07/24 11:43:05;;;;;;;8.57;5.90;;;;;;;;;;4377431;32;20081;-65
2022/07/24 11:45:34;;;;;;;7.20;4.37;;;;;;;;;;4389949;32;20070;-64
2022/07/24 11:48:01;;;;;;;8.35;4.90;;;;;;;;;;4390857;32;20154;-64
2022/07/24 11:50:29;;;;;;;7.32;5.62;;;;;;;;;;4392243;32;20089;-64
2022/07/24 11:52:55;;;;;;;8.20;5.70;;;;;;;;;;4392209;32;20164;-63
2022/07/24 11:55:26;;;;;;;7.80;5.50;;;;;;;;;;4379454;32;20170;-64
2022/07/24 11:57:56;;;;;;;7.30;5.78;;;;;;;;;;4380389;32;20068;-64
2022/07/24 12:00:25;;;;;;;7.65;5.93;;;;;;;;;;4379849;32;20137;-64
2022/07/24 12:02:57;;;;;;;8.07;6.18;;;;;;;;;;4379705;32;20511;-64
2022/07/24 12:05:30;;;;;;;8.27;6.15;;;;;;;;;;4379934;32;20081;-64
2022/07/24 12:07:58;;;;;;;7.60;5.60;;;;;;;;;;4379488;32;20504;-64
2022/07/24 12:10:26;;;;;;;7.03;5.70;;;;;;;;;;4379649;32;20089;-64
2022/07/24 12:12:54;;;;;;;9.00;6.20;;;;;;;;;;4379618;32;20090;-64
2022/07/24 12:15:22;;;;;;;7.72;5.80;;;;;;;;;;4379397;32;20077;-64
2022/07/24 12:17:59;;;;;;;6.20;4.53;;;;;;;;;;4392007;32;20078;-64
2022/07/24 12:20:32;;;;;;;5.82;4.60;;;;;;;;;;4393057;32;20471;-64
2022/07/24 12:23:01;;;;;;;6.47;4.72;;;;;;;;;;4392461;32;20084;-64
2022/07/24 12:25:29;;;;;;;5.70;4.60;;;;;;;;;;4367061;32;20210;-64
2022/07/24 12:28:09;;;;;;;6.45;4.70;;;;;;;;;;4366781;32;20527;-64
2022/07/24 12:30:39;;;;;;;6.82;5.60;;;;;;;;;;4379484;32;20081;-64
2022/07/24 12:33:08;;;;;;;7.28;5.18;;;;;;;;;;4366839;32;20171;-64
2022/07/24 12:36:08;;;;;;;7.78;5.10;;;;;;;;;;4379141;32;20069;-64
2022/07/24 12:38:37;;;;;;;6.97;5.05;;;;;;;;;;4367397;32;20170;-64
2022/07/24 12:41:25;;;;;;;5.97;4.37;;;;;;;;;;4379003;32;20484;-65
2022/07/24 12:44:07;;;;;;;7.15;4.70;;;;;;;;;;4379347;32;20089;-64
2022/07/24 12:46:36;;;;;;;5.57;3.87;;;;;;;;;;4379588;32;20141;-64
2022/07/24 12:49:18;;;;;;;10.60;5.75;;;;;;;;;;4366323;32;20101;-64
2022/07/24 12:51:59;;;;;;;6.68;4.25;;;;;;;;;;4391391;32;20600;-64
2022/07/24 12:54:29;;;;;;;6.50;4.20;;;;;;;;;;4379256;32;20070;-64
2022/07/24 12:57:00;;;;;;;5.82;4.55;;;;;;;;;;4378865;32;20147;-64
2022/07/24 12:59:32;;;;;;;6.87;5.50;;;;;;;;;;4378864;32;20151;-64
2022/07/24 13:02:10;;;;;;;6.70;5.00;;;;;;;;;;4391289;32;20592;-64
2022/07/24 13:04:46;;;;;;;7.35;4.72;;;;;;;;;;4379486;32;20110;-64
2022/07/24 13:07:14;;;;;;;7.85;5.00;;;;;;;;;;4378712;32;20153;-64
2022/07/24 13:09:42;;;;;;;7.35;5.80;;;;;;;;;;4366296;32;20082;-64
2022/07/24 13:12:10;;;;;;;5.70;4.50;;;;;;;;;;4378570;32;20620;-64
2022/07/24 13:14:37;;;;;;;7.45;5.30;;;;;;;;;;4378806;32;20078;-64
2022/07/24 13:17:09;;;;;;;6.82;4.68;;;;;;;;;;4366531;32;20066;-64
2022/07/24 13:19:39;;;;;;;7.72;4.75;;;;;;;;;;4379108;32;20488;-64
2022/07/24 13:22:06;;;;;;;9.80;5.10;;;;;;;;;;4378806;32;20085;-64
2022/07/24 13:24:33;;;;;;;9.18;4.87;;;;;;;;;;4390792;32;20239;-65
2022/07/24 13:27:00;;;;;;;6.40;4.50;;;;;;;;;;4390854;32;20447;-64
2022/07/24 13:29:27;;;;;;;6.82;5.37;;;;;;;;;;4378307;32;20090;-63
2022/07/24 13:31:54;;;;;;;8.85;5.40;;;;;;;;;;4390846;32;20468;-64
2022/07/24 13:34:21;;;;;;;8.65;6.05;;;;;;;;;;4390771;32;20116;-64
2022/07/24 13:36:48;;;;;;;6.57;4.80;;;;;;;;;;4365628;32;20449;-64
2022/07/24 13:39:15;;;;;;;8.57;5.57;;;;;;;;;;4391268;32;20498;-64
2022/07/24 13:41:45;;;;;;;7.68;5.32;;;;;;;;;;4377205;32;20121;-64
2022/07/24 13:44:12;;;;;;;6.90;4.60;;;;;;;;;;4390925;32;20085;-64
2022/07/24 13:46:39;;;;;;;7.12;4.80;;;;;;;;;;4392093;32;20088;-64
2022/07/24 13:49:07;;;;;;;8.57;5.30;;;;;;;;;;4391994;32;20085;-65
2022/07/24 13:51:34;;;;;;;6.80;5.05;;;;;;;;;;4390575;32;20157;-63
2022/07/24 13:54:01;;;;;;;8.82;4.90;;;;;;;;;;4378070;32;20090;-64
2022/07/24 13:56:28;;;;;;;9.05;5.25;;;;;;;;;;4390517;32;20154;-64
2022/07/24 13:58:56;;;;;;;14.85;6.40;;;;;;;;;;4390503;32;20500;-64
2022/07/24 14:01:22;;;;;;;9.07;5.28;;;;;;;;;;4377997;32;20586;-64
2022/07/24 14:03:50;;;;;;;7.90;5.20;;;;;;;;;;4390629;32;20074;-65
2022/07/24 14:06:16;;;;;;;9.65;5.35;;;;;;;;;;4390529;32;20201;-64
2022/07/24 14:08:44;;;;;;;9.43;5.20;;;;;;;;;;4377948;32;20082;-65
2022/07/24 14:11:10;;;;;;;8.40;5.18;;;;;;;;;;4391194;32;20121;-64
2022/07/24 14:13:40;;;;;;;7.32;5.45;;;;;;;;;;4390925;32;20161;-64
2022/07/24 14:16:07;;;;;;;10.65;6.30;;;;;;;;;;4365522;32;20502;-64
2022/07/24 14:18:34;;;;;;;10.40;5.97;;;;;;;;;;4390588;32;20521;-64
2022/07/24 14:21:01;;;;;;;8.07;5.20;;;;;;;;;;4377365;32;20081;-64
2022/07/24 14:23:28;;;;;;;10.57;6.20;;;;;;;;;;4389932;32;20065;-64
2022/07/24 14:25:54;;;;;;;7.45;6.32;;;;;;;;;;4377752;32;20161;-64
2022/07/24 14:28:21;;;;;;;7.57;5.62;;;;;;;;;;4390976;32;20102;-64
2022/07/24 14:30:48;;;;;;;12.18;6.25;;;;;;;;;;4390953;32;20074;-64
2022/07/24 14:33:14;;;;;;;7.80;6.00;;;;;;;;;;4389697;32;20093;-64
2022/07/24 14:35:41;;;;;;;11.20;5.75;;;;;;;;;;4391277;32;20096;-64
2022/07/24 14:38:08;;;;;;;7.53;5.93;;;;;;;;;;4377894;32;20157;-64
2022/07/24 14:40:35;;;;;;;10.98;5.90;;;;;;;;;;4391615;32;20665;-63
2022/07/24 14:43:02;;;;;;;7.22;5.53;;;;;;;;;;4365109;32;20090;-64
2022/07/24 14:45:29;;;;;;;9.02;5.57;;;;;;;;;;4378075;32;20172;-64
2022/07/24 14:47:55;;;;;;;8.32;5.85;;;;;;;;;;4377469;32;20088;-64